Time;durP1;ratioP1;P1;durP2;ratioP2;P2;SDS_P1;SDS_P2;PMS_P1;PMS_P2;Temp;Humidity;BMP_temperature;BMP_pressure;BME280_temperature;BME280_humidity;BME280_pressure;Samples;Min_cycle;Max_cycle;Signal;HPM_P1;HPM_P2
2021/09/06 00:02:06;;;;;;;28.27;17.83;;;;;;;12.68;95.26;102467.59;6180690;23;20005;-76
2021/09/06 00:04:35;;;;;;;31.00;18.20;;;;;;;12.66;94.71;102466.69;6186411;23;20080;-76
2021/09/06 00:07:00;;;;;;;32.95;18.52;;;;;;;12.63;94.76;102466.59;6185882;23;20001;-77
2021/09/06 00:09:26;;;;;;;33.50;18.33;;;;;;;12.62;95.07;102463.03;6186280;23;20049;-76
2021/09/06 00:11:51;;;;;;;31.30;18.15;;;;;;;12.60;95.04;102471.72;6185934;23;20005;-77
2021/09/06 00:14:18;;;;;;;31.40;18.55;;;;;;;12.56;95.30;102462.84;6186091;23;20331;-77
2021/09/06 00:16:43;;;;;;;30.33;18.20;;;;;;;12.54;95.48;102463.63;6187144;23;20009;-76
2021/09/06 00:19:29;;;;;;;33.10;19.27;;;;;;;12.53;95.20;102462.69;6186216;23;20355;-78
2021/09/06 00:21:54;;;;;;;36.80;19.73;;;;;;;12.51;95.50;102463.50;6186175;23;20024;-75
2021/09/06 00:24:23;;;;;;;34.75;19.67;;;;;;;12.51;95.61;102463.50;6186034;23;20008;-77
2021/09/06 00:26:49;;;;;;;34.90;19.88;;;;;;;12.48;95.74;102462.56;6186470;23;20405;-77
2021/09/06 00:29:34;;;;;;;34.30;20.30;;;;;;;12.47;95.40;102468.66;6185716;23;20043;-76
2021/09/06 00:32:19;;;;;;;35.08;19.38;;;;;;;12.47;95.49;102463.38;6185957;23;20005;-77
2021/09/06 00:34:45;;;;;;;35.30;19.63;;;;;;;12.46;96.00;102464.22;6185755;23;20004;-76
2021/09/06 00:37:10;;;;;;;37.78;19.25;;;;;;;12.43;95.88;102466.78;6185241;23;20324;-75
2021/09/06 00:39:35;;;;;;;34.75;20.58;;;;;;;12.39;95.90;102464.88;6186374;23;20024;-77
2021/09/06 00:42:01;;;;;;;37.10;20.30;;;;;;;12.37;96.02;102466.56;6185937;23;20320;-78
2021/09/06 00:44:27;;;;;;;35.60;19.20;;;;;;;12.33;95.97;102462.03;6186144;23;20421;-76
2021/09/06 00:46:52;;;;;;;35.40;20.23;;;;;;;12.32;95.67;102463.75;6185405;23;20088;-77
2021/09/06 00:49:21;;;;;;;35.10;18.88;;;;;;;12.31;96.03;102461.06;6185987;23;20027;-77
2021/09/06 00:51:47;;;;;;;33.80;19.77;;;;;;;12.28;95.95;102458.31;6185212;23;20086;-78
2021/09/06 00:54:14;;;;;;;37.20;20.50;;;;;;;12.27;95.57;102464.44;6185813;23;20009;-78
2021/09/06 00:56:59;;;;;;;34.75;20.00;;;;;;;12.24;95.42;102456.41;6185548;23;20028;-77
2021/09/06 00:59:44;;;;;;;36.65;19.80;;;;;;;12.21;95.81;102454.56;6186107;23;20015;-76
2021/09/06 01:02:30;;;;;;;35.78;20.85;;;;;;;12.20;95.78;102465.06;6179998;23;20326;-76
2021/09/06 01:04:55;;;;;;;35.70;19.20;;;;;;;12.18;95.59;102461.47;6185802;23;20143;-76
2021/09/06 01:07:21;;;;;;;36.60;19.75;;;;;;;12.17;95.81;102457.94;6185165;23;20028;-78
2021/09/06 01:09:46;;;;;;;39.58;21.33;;;;;;;12.16;95.83;102457.88;6185432;23;20005;-77
2021/09/06 01:12:12;;;;;;;33.95;20.40;;;;;;;12.13;95.81;102451.66;6158513;23;20524;-76
2021/09/06 01:14:38;;;;;;;34.80;20.55;;;;;;;12.12;95.51;102454.22;6186415;23;20005;-77
2021/09/06 01:17:04;;;;;;;35.50;21.10;;;;;;;12.10;95.84;102458.53;6184756;23;20322;-76
2021/09/06 01:19:30;;;;;;;38.50;21.02;;;;;;;12.08;96.18;102461.13;6185764;23;20016;-78
2021/09/06 01:21:56;;;;;;;40.72;22.25;;;;;;;12.07;96.10;102466.34;6185888;23;20025;-76
2021/09/06 01:24:21;;;;;;;38.10;20.95;;;;;;;12.04;96.23;102469.78;6158854;23;20016;-77
2021/09/06 01:27:07;;;;;;;35.92;19.98;;;;;;;12.02;96.36;102466.19;6185378;23;20001;-76
2021/09/06 01:29:33;;;;;;;44.60;24.08;;;;;;;12.00;96.07;102459.94;6185364;23;20013;-75
2021/09/06 01:31:58;;;;;;;39.00;21.42;;;;;;;11.99;96.46;102458.16;6185789;23;20016;-76
2021/09/06 01:34:24;;;;;;;38.78;21.63;;;;;;;11.98;96.40;102456.38;6186257;23;20017;-76
2021/09/06 01:37:09;;;;;;;34.58;20.50;;;;;;;11.97;96.48;102458.09;6185020;23;20298;-76
2021/09/06 01:39:34;;;;;;;39.55;21.17;;;;;;;11.96;96.50;102458.97;6185489;23;20009;-77
2021/09/06 01:42:00;;;;;;;35.50;21.00;;;;;;;11.96;96.41;102458.03;6185232;23;20491;-77
2021/09/06 01:44:46;;;;;;;38.40;20.92;;;;;;;11.93;96.40;102461.44;6185084;23;20001;-77
2021/09/06 01:47:11;;;;;;;41.00;22.98;;;;;;;11.92;96.63;102461.38;6162044;23;20437;-76
2021/09/06 01:49:37;;;;;;;44.40;21.20;;;;;;;11.91;96.88;102468.41;6185833;23;20005;-77
2021/09/06 01:52:11;;;;;;;40.42;20.10;;;;;;;11.89;97.00;102466.53;6158984;23;20029;-77
2021/09/06 01:54:56;;;;;;;38.38;20.67;;;;;;;11.89;96.93;102474.47;6185080;23;20471;-77
2021/09/06 01:57:22;;;;;;;34.88;20.33;;;;;;;11.88;96.95;102465.66;6185091;23;20009;-77
2021/09/06 01:59:47;;;;;;;40.78;22.13;;;;;;;11.88;97.10;102464.75;6184805;23;20015;-77
2021/09/06 02:02:12;;;;;;;37.55;21.25;;;;;;;11.87;97.14;102468.22;6179679;23;20001;-76
2021/09/06 02:04:38;;;;;;;41.88;22.52;;;;;;;11.85;97.10;102464.63;6184771;23;20009;-75
2021/09/06 02:07:03;;;;;;;36.80;21.02;;;;;;;11.82;97.40;102460.13;6184965;23;20001;-78
2021/09/06 02:09:29;;;;;;;44.90;21.88;;;;;;;11.80;97.58;102470.63;6185152;23;20333;-77
2021/09/06 02:11:54;;;;;;;37.03;21.02;;;;;;;11.78;97.39;102472.31;6158765;23;20118;-78
2021/09/06 02:14:20;;;;;;;37.80;21.20;;;;;;;11.75;97.22;102477.47;6184265;23;20450;-80
2021/09/06 02:16:45;;;;;;;37.40;19.23;;;;;;;11.73;97.12;102470.34;6185011;23;20005;-76
2021/09/06 02:19:11;;;;;;;37.95;21.35;;;;;;;11.71;96.79;102462.38;6185262;23;20029;-78
2021/09/06 02:21:56;;;;;;;35.85;19.60;;;;;;;11.68;96.70;102470.19;6185313;23;20452;-76
2021/09/06 02:24:23;;;;;;;39.42;21.15;;;;;;;11.69;96.85;102473.69;6184896;23;20013;-76
2021/09/06 02:26:49;;;;;;;37.83;21.05;;;;;;;11.68;96.94;102475.44;6184770;23;20005;-77
2021/09/06 02:29:17;;;;;;;37.20;20.58;;;;;;;11.66;97.25;102473.59;6184151;23;20489;-76
2021/09/06 02:32:02;;;;;;;38.75;21.27;;;;;;;11.63;97.34;102477.00;6185570;23;20016;-77
2021/09/06 02:34:28;;;;;;;36.85;20.35;;;;;;;11.60;97.14;102483.06;6184065;23;20031;-76
2021/09/06 02:36:54;;;;;;;33.47;19.75;;;;;;;11.58;97.03;102468.91;6158045;23;20472;-76
2021/09/06 02:39:19;;;;;;;35.47;20.55;;;;;;;11.56;97.26;102472.34;6184225;23;20009;-78
2021/09/06 02:41:45;;;;;;;36.80;21.00;;;;;;;11.54;97.21;102479.28;6184777;23;20025;-77
2021/09/06 02:44:10;;;;;;;39.00;21.23;;;;;;;11.52;97.36;102470.44;6184176;23;20016;-77
2021/09/06 02:46:35;;;;;;;37.17;21.30;;;;;;;11.52;97.36;102475.69;6184887;23;20004;-78
2021/09/06 02:49:01;;;;;;;39.92;20.65;;;;;;;11.50;97.23;102470.34;6184133;23;20036;-77
2021/09/06 02:51:27;;;;;;;33.83;19.48;;;;;;;11.48;96.86;102464.13;6185084;23;20417;-78
2021/09/06 02:53:53;;;;;;;31.45;19.48;;;;;;;11.46;96.49;102471.97;6184433;23;20100;-76
2021/09/06 02:56:18;;;;;;;34.25;19.52;;;;;;;11.46;96.58;102469.34;6184072;23;20413;-76
2021/09/06 02:58:44;;;;;;;32.83;18.30;;;;;;;11.47;96.78;102472.88;6158283;23;20100;-77
2021/09/06 03:01:09;;;;;;;38.88;20.38;;;;;;;11.46;96.88;102481.59;6179776;23;20029;-77
2021/09/06 03:03:34;;;;;;;37.15;19.70;;;;;;;11.45;97.12;102475.44;6184724;23;20091;-76
2021/09/06 03:06:00;;;;;;;41.00;20.25;;;;;;;11.45;97.18;102483.34;6184018;23;19997;-76
2021/09/06 03:08:25;;;;;;;37.22;19.58;;;;;;;11.44;97.14;102478.91;6184493;23;20009;-77
2021/09/06 03:10:51;;;;;;;38.42;20.77;;;;;;;11.42;97.09;102483.25;6184870;23;20016;-77
2021/09/06 03:13:16;;;;;;;38.78;20.73;;;;;;;11.41;97.43;102470.91;6183659;23;20005;-77
2021/09/06 03:15:42;;;;;;;33.28;18.73;;;;;;;11.39;97.45;102479.56;6184261;23;20338;-77
2021/09/06 03:18:07;;;;;;;34.40;19.50;;;;;;;11.37;97.40;102476.00;6184213;23;20072;-76
2021/09/06 03:20:33;;;;;;;38.88;18.52;;;;;;;11.34;97.15;102481.13;6184318;23;20432;-78
2021/09/06 03:22:58;;;;;;;31.25;18.73;;;;;;;11.32;97.07;102478.44;6184667;23;20008;-76
2021/09/06 03:25:24;;;;;;;31.30;18.13;;;;;;;11.29;96.94;102470.41;6184863;23;20017;-76
2021/09/06 03:27:49;;;;;;;32.75;17.95;;;;;;;11.27;96.62;102467.72;6184622;23;20009;-76
2021/09/06 03:30:15;;;;;;;32.10;17.77;;;;;;;11.28;96.85;102461.59;6183557;23;20013;-77
2021/09/06 03:32:40;;;;;;;35.08;18.92;;;;;;;11.27;96.88;102469.44;6185215;23;20028;-76
2021/09/06 03:35:26;;;;;;;33.15;18.40;;;;;;;11.26;97.11;102470.31;6183460;23;20005;-77
2021/09/06 03:38:11;;;;;;;34.40;18.25;;;;;;;11.23;97.54;102464.88;6184405;23;20016;-77
2021/09/06 03:40:56;;;;;;;42.80;18.40;;;;;;;11.20;96.98;102467.41;6175076;23;20340;-76
2021/09/06 03:43:22;;;;;;;33.42;17.80;;;;;;;11.19;97.00;102460.34;6184027;23;20009;-77
2021/09/06 03:45:47;;;;;;;31.52;17.35;;;;;;;11.16;97.17;102470.75;6184039;23;20005;-77
2021/09/06 03:48:13;;;;;;;31.63;17.77;;;;;;;11.14;96.98;102468.06;6184439;23;20005;-76
2021/09/06 03:50:38;;;;;;;30.25;16.73;;;;;;;11.12;96.82;102462.75;6185339;23;20068;-77
2021/09/06 03:53:04;;;;;;;31.75;16.77;;;;;;;11.11;96.83;102460.94;6184899;23;20421;-77
2021/09/06 03:55:29;;;;;;;33.53;17.77;;;;;;;11.09;96.56;102465.22;6185096;23;20001;-75
2021/09/06 03:57:55;;;;;;;30.48;17.00;;;;;;;11.08;96.42;102457.25;6183809;23;20008;-77
2021/09/06 04:00:40;;;;;;;29.85;18.08;;;;;;;11.08;96.90;102462.53;6179344;23;20004;-77
2021/09/06 04:03:06;;;;;;;38.45;18.23;;;;;;;11.07;97.13;102471.25;6183979;23;20012;-77
2021/09/06 04:05:51;;;;;;;33.53;18.88;;;;;;;11.06;97.71;102475.66;6184045;23;20009;-76
2021/09/06 04:08:16;;;;;;;35.42;17.55;;;;;;;11.05;98.10;102472.94;6185981;23;20321;-77
2021/09/06 04:10:42;;;;;;;37.13;19.75;;;;;;;11.04;97.93;102472.06;6186520;23;20017;-76
2021/09/06 04:13:27;;;;;;;27.35;17.02;;;;;;;11.01;97.95;102477.19;6185374;23;20003;-77
2021/09/06 04:15:53;;;;;;;28.73;17.02;;;;;;;10.99;97.50;102473.59;6186113;23;20013;-75
2021/09/06 04:18:21;;;;;;;27.33;17.15;;;;;;;10.98;97.12;102471.81;6186065;23;20444;-76
2021/09/06 04:21:06;;;;;;;30.33;17.25;;;;;;;10.99;97.44;102472.69;6186553;23;20335;-76
2021/09/06 04:23:32;;;;;;;28.67;16.25;;;;;;;10.98;97.54;102471.81;6186348;23;20009;-77
2021/09/06 04:26:00;;;;;;;27.75;15.88;;;;;;;10.96;97.63;102474.38;6186658;23;20016;-76
2021/09/06 04:28:46;;;;;;;29.55;15.70;;;;;;;10.95;97.75;102477.84;6184985;23;20084;-77
2021/09/06 04:31:11;;;;;;;25.52;15.18;;;;;;;10.96;97.79;102481.41;6186084;23;20015;-76
2021/09/06 04:33:37;;;;;;;29.00;14.65;;;;;;;10.96;97.79;102478.75;6159928;23;20009;-76
2021/09/06 04:36:02;;;;;;;26.08;16.05;;;;;;;10.93;98.09;102484.78;6185427;23;20314;-76
2021/09/06 04:38:28;;;;;;;26.30;15.70;;;;;;;10.92;98.18;102487.34;6186407;23;20336;-77
2021/09/06 04:40:53;;;;;;;26.48;16.08;;;;;;;10.92;98.02;102487.34;6185691;23;20076;-78
2021/09/06 04:43:19;;;;;;;28.95;16.00;;;;;;;10.91;98.10;102490.84;6159323;23;20052;-77
2021/09/06 04:45:44;;;;;;;28.67;16.30;;;;;;;10.89;97.86;102487.22;6186558;23;20004;-76
2021/09/06 04:48:10;;;;;;;28.92;16.00;;;;;;;10.89;97.96;102495.13;6159472;23;20075;-75
2021/09/06 04:50:35;;;;;;;32.72;16.67;;;;;;;10.88;98.11;102501.22;6186068;23;20440;-77
2021/09/06 04:53:04;;;;;;;30.48;16.40;;;;;;;10.86;98.08;102497.63;6186305;23;20055;-76
2021/09/06 04:55:29;;;;;;;24.50;14.88;;;;;;;10.85;98.06;102501.09;6186257;23;20001;-76
2021/09/06 04:57:55;;;;;;;26.67;16.30;;;;;;;10.86;98.08;102497.63;6186706;23;20059;-77
2021/09/06 05:00:21;;;;;;;25.95;14.65;;;;;;;10.85;97.95;102495.81;6180507;23;20079;-77
2021/09/06 05:02:46;;;;;;;29.20;16.63;;;;;;;10.85;98.14;102503.72;6186413;23;20009;-76
2021/09/06 05:05:12;;;;;;;24.58;14.35;;;;;;;10.83;98.03;102497.50;6184634;23;20503;-78
2021/09/06 05:07:37;;;;;;;30.90;16.42;;;;;;;10.83;97.83;102497.50;6186046;23;20013;-77
2021/09/06 05:10:03;;;;;;;26.05;16.13;;;;;;;10.81;97.79;102500.06;6184210;23;20421;-76
2021/09/06 05:12:28;;;;;;;27.45;15.55;;;;;;;10.83;98.03;102505.41;6186148;23;20011;-78
2021/09/06 05:14:54;;;;;;;28.45;16.10;;;;;;;10.85;97.92;102504.66;6188141;23;20080;-77
2021/09/06 05:17:19;;;;;;;25.00;15.18;;;;;;;10.88;98.38;102503.84;6186695;23;20009;-77
2021/09/06 05:19:45;;;;;;;25.75;14.60;;;;;;;10.88;98.50;102501.22;6184663;23;20428;-77
2021/09/06 05:22:10;;;;;;;25.75;15.32;;;;;;;10.91;98.44;102511.91;6185079;23;20080;-76
2021/09/06 05:24:37;;;;;;;21.05;14.05;;;;;;;10.93;98.40;102511.13;6185868;23;20012;-77
2021/09/06 05:27:03;;;;;;;25.70;15.20;;;;;;;10.98;98.55;102521.84;6159397;23;20136;-78
2021/09/06 05:29:29;;;;;;;27.75;15.65;;;;;;;11.00;98.36;102512.28;6185197;23;20037;-78
2021/09/06 05:31:57;;;;;;;23.70;15.63;;;;;;;11.04;98.71;102513.28;6184891;23;20416;-77
2021/09/06 05:34:22;;;;;;;25.27;14.80;;;;;;;11.08;98.56;102518.78;6185671;23;20056;-78
2021/09/06 05:36:47;;;;;;;22.17;14.30;;;;;;;11.12;98.09;102517.16;6185192;23;19997;-78
2021/09/06 05:39:13;;;;;;;22.73;14.40;;;;;;;11.18;98.13;102519.13;6186528;23;20011;-76
2021/09/06 05:41:38;;;;;;;22.08;14.52;;;;;;;11.25;98.44;102518.56;6185970;23;20060;-77
2021/09/06 05:44:05;;;;;;;28.27;17.05;;;;;;;11.32;98.85;102525.88;6186077;23;20076;-77
2021/09/06 05:46:31;;;;;;;25.50;15.27;;;;;;;11.39;98.89;102524.38;6185959;23;20005;-77
2021/09/06 05:49:16;;;;;;;24.27;14.82;;;;;;;11.47;98.61;102530.88;6186109;23;20016;-76
2021/09/06 05:52:02;;;;;;;27.92;16.27;;;;;;;11.57;98.98;102533.03;6185367;23;20556;-77
2021/09/06 05:54:27;;;;;;;28.13;17.55;;;;;;;11.67;99.29;102534.28;6185066;23;20001;-76
2021/09/06 05:56:53;;;;;;;29.60;17.60;;;;;;;11.74;99.50;102538.97;6184988;23;20013;-78
2021/09/06 05:59:18;;;;;;;31.65;18.02;;;;;;;11.82;99.52;102537.53;6184582;23;20083;-77
2021/09/06 06:01:44;;;;;;;26.98;17.05;;;;;;;11.90;99.52;102539.56;6179445;23;20019;-77
2021/09/06 06:04:09;;;;;;;29.75;18.02;;;;;;;12.00;99.70;102538.22;6185214;23;20008;-76
2021/09/06 06:06:35;;;;;;;28.92;17.00;;;;;;;12.08;99.74;102542.03;6185164;23;20013;-78
2021/09/06 06:09:00;;;;;;;28.63;17.73;;;;;;;12.17;99.73;102546.75;6185473;23;20013;-78
2021/09/06 06:11:26;;;;;;;42.03;19.88;;;;;;;12.28;99.56;102553.34;6184619;23;20434;-77
2021/09/06 06:13:51;;;;;;;32.80;18.95;;;;;;;12.38;99.82;102552.81;6184191;23;20071;-78
2021/09/06 06:16:24;;;;;;;36.85;21.23;;;;;;;12.47;99.85;102558.44;6185166;23;20004;-78
2021/09/06 06:18:52;;;;;;;35.65;20.10;;;;;;;12.55;99.69;102555.19;6160987;23;20080;-77
2021/09/06 06:21:18;;;;;;;37.17;21.65;;;;;;;12.64;99.75;102566.06;6183898;23;20049;-77
2021/09/06 06:23:43;;;;;;;38.15;21.02;;;;;;;12.72;99.35;102563.72;6176761;23;20009;-77
2021/09/06 06:26:08;;;;;;;43.08;23.92;;;;;;;12.80;99.37;102557.88;6184702;23;20005;-76
2021/09/06 06:28:34;;;;;;;37.22;22.20;;;;;;;12.90;99.42;102559.09;6185106;23;20067;-75
2021/09/06 06:30:59;;;;;;;41.67;23.05;;;;;;;13.02;99.48;102561.22;6182921;23;20036;-76
2021/09/06 06:33:29;;;;;;;44.35;24.27;;;;;;;13.13;99.58;102562.50;6184495;23;20083;-76
2021/09/06 06:35:54;;;;;;;44.40;24.15;;;;;;;13.26;99.94;102565.56;6183971;23;20005;-77
2021/09/06 06:38:20;;;;;;;49.33;25.67;;;;;;;13.39;99.63;102559.88;6184295;23;20449;-78
2021/09/06 06:40:47;;;;;;;42.55;23.73;;;;;;;13.53;99.55;102564.69;6185063;23;20068;-77
2021/09/06 06:43:12;;;;;;;37.95;22.63;;;;;;;13.62;98.77;102562.34;6184594;23;20009;-79
2021/09/06 06:45:38;;;;;;;42.15;22.98;;;;;;;13.70;98.64;102565.22;6183212;23;20052;-77
2021/09/06 06:48:03;;;;;;;42.38;22.70;;;;;;;13.78;98.29;102564.63;6178884;23;20036;-75
2021/09/06 06:50:29;;;;;;;39.97;22.90;;;;;;;13.88;98.29;102564.91;6178857;23;20082;-77
2021/09/06 06:52:55;;;;;;;41.22;21.45;;;;;;;13.99;97.93;102576.72;6178226;23;20035;-75
2021/09/06 06:55:21;;;;;;;59.70;23.45;;;;;;;14.05;97.32;102573.34;6179031;23;20005;-77
2021/09/06 06:57:46;;;;;;;35.72;21.55;;;;;;;14.15;97.17;102576.31;6180888;23;20016;-78
2021/09/06 07:00:12;;;;;;;37.70;22.95;;;;;;;14.24;97.18;102569.50;6174636;23;20555;-75
2021/09/06 07:02:37;;;;;;;37.28;21.52;;;;;;;14.35;97.00;102576.00;6182181;23;20054;-76
2021/09/06 07:05:03;;;;;;;35.65;21.98;;;;;;;14.46;96.42;102573.66;6183735;23;20001;-74
2021/09/06 07:07:29;;;;;;;39.70;22.02;;;;;;;14.61;95.90;102565.22;6179836;23;20295;-76
2021/09/06 07:09:54;;;;;;;34.50;21.35;;;;;;;14.75;95.81;102558.59;6154260;23;20013;-77
2021/09/06 07:12:19;;;;;;;34.92;21.65;;;;;;;14.91;95.78;102566.97;6183892;23;20009;-76
2021/09/06 07:14:45;;;;;;;37.15;22.48;;;;;;;15.05;94.49;102568.22;6183835;23;20001;-76
2021/09/06 07:17:10;;;;;;;34.75;22.60;;;;;;;15.20;94.02;102566.81;6182749;23;20007;-76
2021/09/06 07:19:36;;;;;;;37.33;21.17;;;;;;;15.36;94.07;102570.75;6183777;23;20008;-75
2021/09/06 07:22:02;;;;;;;34.55;21.25;;;;;;;15.50;93.84;102574.63;6182353;23;20047;-77
2021/09/06 07:24:27;;;;;;;31.25;22.95;;;;;;;15.62;91.77;102560.75;6183198;23;20016;-76
2021/09/06 07:26:52;;;;;;;38.13;22.48;;;;;;;15.74;91.64;102568.13;6181954;23;20055;-78
2021/09/06 07:29:18;;;;;;;35.58;20.60;;;;;;;15.86;90.93;102568.41;6184016;23;20076;-77
2021/09/06 07:31:44;;;;;;;33.00;21.83;;;;;;;16.04;91.32;102572.34;6183599;23;20332;-77
2021/09/06 07:34:09;;;;;;;36.17;22.60;;;;;;;16.16;91.83;102581.47;6183661;23;20421;-76
2021/09/06 07:36:36;;;;;;;40.92;21.33;;;;;;;16.28;89.49;102577.28;6182260;23;20111;-76
2021/09/06 07:39:03;;;;;;;35.05;20.15;;;;;;;16.40;89.44;102580.19;6183503;23;20084;-77
2021/09/06 07:41:29;;;;;;;34.35;20.58;;;;;;;16.50;87.33;102576.84;6184714;23;20035;-77
2021/09/06 07:43:54;;;;;;;36.33;21.45;;;;;;;16.62;88.29;102583.28;6185044;23;20424;-76
2021/09/06 07:46:20;;;;;;;34.97;20.85;;;;;;;16.71;86.78;102586.09;6183772;23;20012;-76
2021/09/06 07:48:45;;;;;;;32.90;21.60;;;;;;;16.81;87.85;102590.72;6185939;23;20005;-75
2021/09/06 07:51:30;;;;;;;32.33;21.23;;;;;;;16.89;86.74;102601.53;6184916;23;20005;-75
2021/09/06 07:53:56;;;;;;;34.10;20.08;;;;;;;16.96;85.38;102594.56;6184839;23;20417;-76
2021/09/06 07:56:21;;;;;;;34.10;21.45;;;;;;;17.01;86.27;102593.78;6184139;23;20088;-77
2021/09/06 07:58:47;;;;;;;33.10;21.48;;;;;;;17.09;85.22;102591.28;6185088;23;20432;-76
2021/09/06 08:01:12;;;;;;;35.40;20.95;;;;;;;17.16;84.85;102593.16;6179311;23;20011;-77
2021/09/06 08:03:38;;;;;;;33.03;19.65;;;;;;;17.21;84.93;102598.53;6183777;23;20015;-75
2021/09/06 08:06:03;;;;;;;33.50;19.85;;;;;;;17.30;85.66;102608.47;6182344;23;20013;-75
2021/09/06 08:08:29;;;;;;;37.15;22.60;;;;;;;17.31;84.04;102604.94;6183554;23;20009;-77
2021/09/06 08:10:54;;;;;;;32.03;20.20;;;;;;;17.31;84.78;102612.94;6159512;23;20087;-79
2021/09/06 08:13:20;;;;;;;30.85;19.95;;;;;;;17.36;84.78;102613.88;6185201;23;20011;-78
2021/09/06 08:15:46;;;;;;;30.77;19.15;;;;;;;17.40;84.62;102618.38;6184745;23;20013;-76
2021/09/06 08:18:11;;;;;;;30.83;21.23;;;;;;;17.48;83.25;102616.75;6183592;23;20001;-75
2021/09/06 08:20:38;;;;;;;31.95;20.05;;;;;;;17.53;83.81;102617.72;6182986;23;20013;-76
2021/09/06 08:23:23;;;;;;;35.15;20.25;;;;;;;17.66;82.51;102624.13;6184446;23;20080;-77
2021/09/06 08:25:49;;;;;;;28.70;18.95;;;;;;;17.78;83.22;102628.75;6183636;23;20114;-77
2021/09/06 08:28:14;;;;;;;28.88;19.25;;;;;;;17.84;80.36;102618.19;6183244;23;20035;-77
2021/09/06 08:30:40;;;;;;;32.92;19.52;;;;;;;17.95;81.85;102625.50;6184672;23;20024;-74
2021/09/06 08:33:05;;;;;;;27.88;18.65;;;;;;;18.12;81.85;102628.38;6183980;23;20425;-77
2021/09/06 08:35:31;;;;;;;28.35;19.33;;;;;;;18.31;83.11;102634.84;6184967;23;20274;-78
2021/09/06 08:38:18;;;;;;;30.45;19.30;;;;;;;18.52;79.59;102624.47;6160419;23;20424;-78
2021/09/06 08:40:43;;;;;;;29.70;18.92;;;;;;;18.78;80.65;102630.97;6185364;23;20005;-77
2021/09/06 08:43:09;;;;;;;33.17;17.08;;;;;;;18.98;77.95;102633.91;6182574;23;20036;-79
2021/09/06 08:45:36;;;;;;;30.58;17.23;;;;;;;19.17;76.48;102619.84;6181266;23;20009;-77
2021/09/06 08:48:20;;;;;;;25.02;15.43;;;;;;;19.41;73.24;102602.28;6183619;23;20009;-78
2021/09/06 08:50:45;;;;;;;26.75;16.38;;;;;;;19.71;73.56;102612.28;6184823;23;20012;-77
2021/09/06 08:53:11;;;;;;;21.77;15.38;;;;;;;19.96;71.42;102614.25;6184714;23;20013;-78
2021/09/06 08:55:54;;;;;;;28.40;16.98;;;;;;;20.27;69.72;102617.06;6184120;23;20012;-78
2021/09/06 08:58:20;;;;;;;26.92;17.45;;;;;;;20.54;69.87;102611.81;6183980;23;20029;-78
2021/09/06 09:01:06;;;;;;;24.70;16.95;;;;;;;20.72;69.19;102613.69;6178061;23;20079;-78
2021/09/06 09:03:34;;;;;;;27.23;17.92;;;;;;;20.88;71.04;102627.13;6183080;23;20024;-78
2021/09/06 09:06:22;;;;;;;23.45;15.25;;;;;;;21.00;68.70;102615.53;6183849;23;20009;-78
2021/09/06 09:08:48;;;;;;;23.50;14.52;;;;;;;21.21;68.34;102618.22;6182782;23;20033;-77
2021/09/06 09:11:13;;;;;;;23.85;15.75;;;;;;;21.27;68.69;102620.03;6183056;23;20314;-77
2021/09/06 09:13:40;;;;;;;27.30;14.82;;;;;;;21.58;68.35;102625.38;6184255;23;20213;-78
2021/09/06 09:16:08;;;;;;;24.42;15.75;;;;;;;21.60;66.09;102617.38;6157883;23;20076;-77
2021/09/06 09:18:35;;;;;;;22.15;14.18;;;;;;;21.73;62.78;102601.28;6157134;23;20012;-78
2021/09/06 09:21:23;;;;;;;19.83;13.20;;;;;;;22.22;62.69;102602.91;6156310;23;20019;-77
2021/09/06 09:23:51;;;;;;;24.33;14.20;;;;;;;22.75;61.44;102594.63;6179316;23;20013;-78
2021/09/06 09:26:36;;;;;;;22.83;13.70;;;;;;;23.21;60.71;102596.09;6181497;23;20009;-77
2021/09/06 09:29:06;;;;;;;22.88;14.43;;;;;;;23.41;60.17;102601.28;6181256;23;20008;-77
2021/09/06 09:31:31;;;;;;;19.35;13.07;;;;;;;23.80;58.79;102598.22;6159330;23;20004;-77
2021/09/06 09:33:57;;;;;;;20.63;12.63;;;;;;;23.57;56.28;102584.09;6183379;23;20015;-78
2021/09/06 09:36:34;;;;;;;20.70;13.40;;;;;;;23.91;53.05;102577.53;6156490;23;20009;-78
2021/09/06 09:39:10;;;;;;;17.35;11.75;;;;;;;24.64;52.54;102587.38;6183238;23;20013;-77
2021/09/06 09:41:37;;;;;;;20.70;12.27;;;;;;;24.90;51.39;102581.59;6181327;23;20059;-78
2021/09/06 09:44:08;;;;;;;19.73;11.95;;;;;;;25.39;51.71;102583.50;6182478;23;20013;-78
2021/09/06 09:46:33;;;;;;;20.77;12.90;;;;;;;26.15;49.29;102570.34;6181530;23;20039;-79
2021/09/06 09:49:48;;;;;;;15.60;11.15;;;;;;;26.91;47.10;102567.75;6157404;23;20428;-78
2021/09/06 09:52:33;;;;;;;18.08;12.30;;;;;;;27.83;45.73;102579.75;6155854;23;20013;-79
2021/09/06 09:54:58;;;;;;;14.57;11.02;;;;;;;28.10;43.80;102567.25;6182438;23;20420;-79
2021/09/06 09:57:27;;;;;;;16.73;11.30;;;;;;;28.26;42.66;102567.69;6181171;23;20001;-78
2021/09/06 09:59:53;;;;;;;14.00;9.32;;;;;;;28.36;41.20;102564.69;6182773;23;20109;-78
2021/09/06 10:02:31;;;;;;;14.55;9.32;;;;;;;29.49;37.16;102561.91;6177014;23;20005;-78
2021/09/06 10:05:02;;;;;;;16.98;10.73;;;;;;;29.55;37.76;102550.81;6182608;23;20012;-78
2021/09/06 10:07:33;;;;;;;16.58;10.00;;;;;;;29.82;36.87;102548.00;6183241;23;20009;-78
2021/09/06 10:10:16;;;;;;;13.70;9.32;;;;;;;29.92;38.21;102535.88;6180678;23;20041;-78
2021/09/06 10:12:42;;;;;;;15.50;10.60;;;;;;;29.57;37.60;102537.19;6153226;23;20001;-80
2021/09/06 10:15:27;;;;;;;20.88;11.85;;;;;;;29.47;37.02;102533.94;6180320;23;20008;-79
2021/09/06 10:17:53;;;;;;;17.33;10.48;;;;;;;28.59;39.28;102535.03;6180952;23;20009;-79
2021/09/06 10:20:39;;;;;;;13.10;10.02;;;;;;;28.40;40.58;102537.47;6182336;23;20016;-79
2021/09/06 10:23:28;;;;;;;17.45;10.85;;;;;;;27.44;40.83;102542.06;6180919;23;20019;-78
2021/09/06 10:25:53;;;;;;;16.83;10.43;;;;;;;27.37;41.82;102554.88;6180620;23;20031;-78
2021/09/06 10:28:39;;;;;;;14.20;10.43;;;;;;;27.53;40.71;102549.94;6184180;23;20009;-78
2021/09/06 10:31:24;;;;;;;16.15;9.98;;;;;;;27.88;40.83;102549.88;6181922;23;20020;-78
2021/09/06 10:34:20;;;;;;;13.63;10.02;;;;;;;28.60;38.12;102544.94;6184767;23;20388;-78
2021/09/06 10:37:09;;;;;;;16.00;11.10;;;;;;;28.79;37.21;102547.09;6180073;23;20001;-77
2021/09/06 10:39:44;;;;;;;17.83;10.70;;;;;;;29.62;36.75;102543.31;6153743;23;20013;-77
2021/09/06 10:42:10;;;;;;;18.77;11.10;;;;;;;29.30;37.79;102544.50;6179483;23;20594;-79
2021/09/06 10:44:38;;;;;;;13.98;9.98;;;;;;;29.59;36.23;102540.75;6181268;23;20009;-78
2021/09/06 10:47:12;;;;;;;20.80;10.77;;;;;;;29.45;36.48;102543.97;6188639;23;20376;-78
2021/09/06 10:49:40;;;;;;;16.38;11.23;;;;;;;29.66;36.17;102535.97;6187621;23;20286;-78
2021/09/06 10:52:08;;;;;;;15.30;10.60;;;;;;;30.05;35.13;102532.72;6182221;23;20005;-82
2021/09/06 10:54:36;;;;;;;15.30;10.70;;;;;;;29.90;35.60;102534.19;6182518;23;20201;-82
2021/09/06 10:57:02;;;;;;;14.88;9.88;;;;;;;28.92;37.73;102539.44;6181177;23;20406;-78
2021/09/06 10:59:28;;;;;;;17.88;10.45;;;;;;;29.36;35.28;102528.03;6181339;23;20079;-74
2021/09/06 11:02:17;;;;;;;15.15;10.40;;;;;;;28.76;37.75;102534.53;6180179;23;20002;-79
2021/09/06 11:04:43;;;;;;;15.93;10.20;;;;;;;28.08;39.12;102527.63;6179467;23;20040;-78
2021/09/06 11:07:11;;;;;;;16.73;9.63;;;;;;;28.02;39.28;102535.97;6179948;23;20373;-79
2021/09/06 11:09:37;;;;;;;13.27;9.30;;;;;;;27.86;38.58;102533.69;6181438;23;20007;-79
2021/09/06 11:12:25;;;;;;;13.15;9.38;;;;;;;27.98;37.53;102536.94;6182548;23;20013;-79
2021/09/06 11:14:51;;;;;;;14.60;9.93;;;;;;;28.24;36.44;102531.66;6131487;23;20013;-79
2021/09/06 11:17:37;;;;;;;13.60;9.10;;;;;;;28.09;38.92;102529.41;6178879;23;20188;-78
2021/09/06 11:20:04;;;;;;;15.90;9.20;;;;;;;28.11;39.69;102535.69;6180004;23;20107;-79